createdAt,value
2022-10-07T00:00:53.072Z,0
2022-10-07T00:01:59.354Z,0
2022-10-07T00:03:05.632Z,0
2022-10-07T00:04:11.918Z,0
2022-10-07T00:05:18.185Z,0
2022-10-07T00:06:24.474Z,0
2022-10-07T00:07:30.749Z,0
2022-10-07T00:08:37.026Z,0
2022-10-07T00:09:43.342Z,0
2022-10-07T00:10:49.589Z,0
2022-10-07T00:11:55.870Z,0
2022-10-07T00:13:02.185Z,0
2022-10-07T00:14:08.441Z,0
2022-10-07T00:15:14.731Z,0
2022-10-07T00:16:21.021Z,0
2022-10-07T00:17:27.302Z,0
2022-10-07T00:18:33.584Z,0
2022-10-07T00:19:39.860Z,0
2022-10-07T00:20:46.135Z,0
2022-10-07T00:21:52.420Z,0
2022-10-07T00:22:58.723Z,0
2022-10-07T00:24:04.988Z,0
2022-10-07T00:25:11.274Z,0
2022-10-07T00:26:17.656Z,0
2022-10-07T00:27:24.006Z,0
2022-10-07T00:28:30.374Z,0
2022-10-07T00:29:36.761Z,0
2022-10-07T00:30:43.100Z,0
2022-10-07T00:31:49.464Z,0
2022-10-07T00:32:55.828Z,0
2022-10-07T00:34:02.194Z,0
2022-10-07T00:35:08.562Z,0
2022-10-07T00:36:14.925Z,0
2022-10-07T00:37:21.297Z,0
2022-10-07T00:38:27.653Z,0
2022-10-07T00:39:34.013Z,0
2022-10-07T00:40:40.511Z,0
2022-10-07T00:41:45.937Z,0
2022-10-07T00:42:52.216Z,0
2022-10-07T00:43:58.518Z,0
2022-10-07T00:45:04.795Z,0
2022-10-07T00:46:11.088Z,0
2022-10-07T00:47:17.372Z,0
2022-10-07T00:48:23.666Z,0
2022-10-07T00:49:29.959Z,0
2022-10-07T00:50:36.263Z,0
2022-10-07T00:51:42.547Z,0
2022-10-07T00:52:48.825Z,0
2022-10-07T00:53:55.117Z,0
2022-10-07T00:55:01.404Z,0
2022-10-07T00:56:07.691Z,0
2022-10-07T00:57:13.991Z,0
2022-10-07T00:58:20.284Z,0
2022-10-07T00:59:26.582Z,0
2022-10-07T01:00:32.874Z,0
2022-10-07T01:01:39.162Z,0
2022-10-07T01:02:45.458Z,0
2022-10-07T01:03:51.746Z,0
2022-10-07T01:04:58.044Z,0
2022-10-07T01:06:04.336Z,0
2022-10-07T01:07:10.643Z,0
2022-10-07T01:08:16.938Z,0
2022-10-07T01:09:23.366Z,0
2022-10-07T01:10:29.668Z,0
2022-10-07T01:11:36.044Z,0
2022-10-07T01:12:42.408Z,0
2022-10-07T01:13:48.773Z,0
2022-10-07T01:14:55.135Z,0
2022-10-07T01:16:01.497Z,0
2022-10-07T01:17:07.917Z,0
2022-10-07T01:18:14.235Z,0
2022-10-07T01:19:20.604Z,0
2022-10-07T01:20:26.967Z,0
2022-10-07T01:21:33.342Z,0
2022-10-07T01:22:39.723Z,0
2022-10-07T01:23:46.214Z,0
2022-10-07T01:24:51.641Z,0
2022-10-07T01:25:57.928Z,0
2022-10-07T01:27:04.221Z,0
2022-10-07T01:28:10.520Z,0
2022-10-07T01:29:16.815Z,0
2022-10-07T01:30:23.091Z,0
2022-10-07T01:31:29.395Z,0
2022-10-07T01:32:35.701Z,0
2022-10-07T01:33:41.996Z,0
2022-10-07T01:34:48.273Z,0
2022-10-07T01:35:54.567Z,0
2022-10-07T01:37:00.846Z,0
2022-10-07T01:38:07.146Z,0
2022-10-07T01:39:13.435Z,0
2022-10-07T01:40:19.732Z,0
2022-10-07T01:41:26.076Z,0
2022-10-07T01:42:32.326Z,0
2022-10-07T01:43:38.628Z,0
2022-10-07T01:44:44.904Z,0
2022-10-07T01:45:51.201Z,0
2022-10-07T01:46:57.492Z,0
2022-10-07T01:48:03.793Z,0
2022-10-07T01:49:10.090Z,0
2022-10-07T01:50:16.398Z,0
2022-10-07T01:51:22.673Z,0
2022-10-07T01:52:29.047Z,0
2022-10-07T01:53:35.424Z,0
2022-10-07T01:54:41.805Z,0
2022-10-07T01:55:48.233Z,0
2022-10-07T01:56:54.545Z,0
2022-10-07T01:58:00.918Z,0
2022-10-07T01:59:07.282Z,0
2022-10-07T02:00:13.647Z,0
2022-10-07T02:01:20.015Z,0
2022-10-07T02:02:26.394Z,0
2022-10-07T02:03:32.779Z,0
2022-10-07T02:04:39.149Z,0
2022-10-07T02:05:45.520Z,0
2022-10-07T02:06:52.029Z,0
2022-10-07T02:07:57.441Z,0
2022-10-07T02:09:03.744Z,0
2022-10-07T02:10:10.049Z,0
2022-10-07T02:11:16.344Z,0
2022-10-07T02:12:22.643Z,0
2022-10-07T02:13:28.966Z,0
2022-10-07T02:14:35.249Z,0
2022-10-07T02:15:41.542Z,0
2022-10-07T02:16:47.856Z,0
2022-10-07T02:17:54.146Z,0
2022-10-07T02:19:00.452Z,0
2022-10-07T02:20:06.754Z,0
2022-10-07T02:21:13.052Z,0
2022-10-07T02:22:19.346Z,0
2022-10-07T02:23:25.644Z,0
2022-10-07T02:24:31.942Z,0
2022-10-07T02:25:38.249Z,0
2022-10-07T02:26:44.552Z,0
2022-10-07T02:27:50.855Z,0
2022-10-07T02:28:57.159Z,0
2022-10-07T02:30:03.455Z,0
2022-10-07T02:31:09.781Z,0
2022-10-07T02:32:16.067Z,0
2022-10-07T02:33:22.353Z,0
2022-10-07T02:34:28.656Z,0
2022-10-07T02:35:35.036Z,0
2022-10-07T02:36:41.411Z,0
2022-10-07T02:37:47.784Z,0
2022-10-07T02:38:54.214Z,0
2022-10-07T02:40:00.534Z,0
2022-10-07T02:41:06.908Z,0
2022-10-07T02:42:13.283Z,0
2022-10-07T02:43:19.674Z,0
2022-10-07T02:44:26.053Z,0
2022-10-07T02:45:32.441Z,0
2022-10-07T02:46:38.824Z,0
2022-10-07T02:47:45.267Z,0
2022-10-07T02:48:51.592Z,0
2022-10-07T02:49:58.095Z,0
2022-10-07T02:51:04.595Z,0
2022-10-07T02:52:11.105Z,0
2022-10-07T02:53:17.613Z,0
2022-10-07T02:54:24.118Z,0
2022-10-07T02:55:30.639Z,0
2022-10-07T02:56:37.144Z,0
2022-10-07T02:57:43.642Z,0
2022-10-07T02:58:50.158Z,0
2022-10-07T02:59:56.652Z,0
2022-10-07T03:01:03.144Z,0
2022-10-07T03:02:09.669Z,0
2022-10-07T03:03:16.162Z,0
2022-10-07T03:04:22.917Z,0
2022-10-07T03:05:28.512Z,0
2022-10-07T03:06:34.817Z,0
2022-10-07T03:07:41.121Z,0
2022-10-07T03:08:47.437Z,0
2022-10-07T03:09:53.738Z,0
2022-10-07T03:11:00.034Z,0
2022-10-07T03:12:06.341Z,0
2022-10-07T03:13:12.635Z,0
2022-10-07T03:14:18.939Z,0
2022-10-07T03:15:25.253Z,0
2022-10-07T03:16:31.546Z,0
2022-10-07T03:17:37.895Z,0
2022-10-07T03:18:44.170Z,0
2022-10-07T03:19:50.524Z,0
2022-10-07T03:20:56.775Z,0
2022-10-07T03:22:03.075Z,0
2022-10-07T03:23:09.383Z,0
2022-10-07T03:24:15.681Z,0
2022-10-07T03:25:21.987Z,0
2022-10-07T03:26:28.291Z,0
2022-10-07T03:27:34.701Z,0
2022-10-07T03:28:40.890Z,0
2022-10-07T03:29:47.203Z,0
2022-10-07T03:30:53.501Z,0
2022-10-07T03:31:59.800Z,0
2022-10-07T03:33:06.185Z,0
2022-10-07T03:34:12.555Z,0
2022-10-07T03:35:18.983Z,0
2022-10-07T03:36:25.367Z,0
2022-10-07T03:37:31.716Z,0
2022-10-07T03:38:38.105Z,0
2022-10-07T03:39:44.502Z,0
2022-10-07T03:40:50.862Z,0
2022-10-07T03:41:57.246Z,0
2022-10-07T03:43:03.881Z,0
2022-10-07T03:44:10.016Z,0
2022-10-07T03:45:16.401Z,0
2022-10-07T03:46:22.785Z,0
2022-10-07T03:47:29.302Z,0
2022-10-07T03:48:35.823Z,0
2022-10-07T03:49:42.331Z,0
2022-10-07T03:50:48.843Z,0
2022-10-07T03:51:55.345Z,0
2022-10-07T03:53:01.857Z,0
2022-10-07T03:54:08.366Z,0
2022-10-07T03:55:14.877Z,0
2022-10-07T03:56:21.386Z,0
2022-10-07T03:57:27.882Z,0
2022-10-07T03:58:34.401Z,0
2022-10-07T03:59:40.913Z,0
2022-10-07T04:00:47.406Z,0
2022-10-07T04:03:23.031Z,0
2022-10-07T04:04:29.776Z,0
2022-10-07T04:05:36.530Z,0
2022-10-07T04:06:43.281Z,0
2022-10-07T04:07:48.890Z,0
2022-10-07T04:08:55.188Z,0
2022-10-07T04:10:01.547Z,0
2022-10-07T04:11:07.837Z,0
2022-10-07T04:12:14.094Z,0
2022-10-07T04:13:20.388Z,0
2022-10-07T04:14:26.718Z,0
2022-10-07T04:15:33.012Z,0
2022-10-07T04:16:39.355Z,0
2022-10-07T04:17:45.619Z,0
2022-10-07T04:18:51.928Z,0
2022-10-07T04:19:58.287Z,0
2022-10-07T04:21:04.564Z,0
2022-10-07T04:22:10.849Z,0
2022-10-07T04:23:17.154Z,0
2022-10-07T04:24:23.510Z,0
2022-10-07T04:25:29.775Z,0
2022-10-07T04:26:36.120Z,0
2022-10-07T04:27:42.397Z,0
2022-10-07T04:28:48.746Z,0
2022-10-07T04:29:55.017Z,0
2022-10-07T04:31:01.324Z,0
2022-10-07T04:32:07.635Z,0
2022-10-07T04:33:13.949Z,0
2022-10-07T04:34:20.258Z,0
2022-10-07T04:35:26.637Z,0
2022-10-07T04:36:33.029Z,0
2022-10-07T04:37:39.421Z,0
2022-10-07T04:38:45.803Z,0
2022-10-07T04:39:52.189Z,0
2022-10-07T04:40:58.584Z,4
2022-10-07T04:42:04.963Z,0
2022-10-07T04:43:11.347Z,0
2022-10-07T04:44:17.730Z,0
2022-10-07T04:45:24.128Z,4
2022-10-07T04:46:30.508Z,1
2022-10-07T04:47:36.904Z,1
2022-10-07T04:48:43.307Z,1
2022-10-07T04:49:49.814Z,3
2022-10-07T04:50:56.331Z,3
2022-10-07T04:52:02.842Z,4
2022-10-07T04:53:09.359Z,6
2022-10-07T04:54:15.868Z,8
2022-10-07T04:55:22.378Z,9
2022-10-07T04:56:28.912Z,11
2022-10-07T04:57:35.400Z,12
2022-10-07T04:58:41.912Z,15
2022-10-07T04:59:48.422Z,19
2022-10-07T05:00:54.956Z,24
2022-10-07T05:02:01.437Z,26
2022-10-07T05:03:07.959Z,31
2022-10-07T05:04:14.714Z,53
2022-10-07T05:05:20.328Z,51
2022-10-07T05:06:26.630Z,61
2022-10-07T05:07:32.948Z,68
2022-10-07T05:08:39.262Z,88
2022-10-07T05:09:45.685Z,112
2022-10-07T05:10:51.878Z,124
2022-10-07T05:11:58.196Z,152
2022-10-07T05:13:04.511Z,186
2022-10-07T05:14:10.820Z,219
2022-10-07T05:15:17.129Z,248
2022-10-07T05:16:23.442Z,312
2022-10-07T05:17:29.764Z,334
2022-10-07T05:18:36.077Z,368
2022-10-07T05:19:42.395Z,406
2022-10-07T05:20:48.719Z,457
2022-10-07T05:21:55.042Z,531
2022-10-07T05:23:01.344Z,584
2022-10-07T05:24:07.695Z,618
2022-10-07T05:25:14.039Z,664
2022-10-07T05:26:20.313Z,713
2022-10-07T05:27:26.644Z,750
2022-10-07T05:28:32.960Z,817
2022-10-07T05:29:39.278Z,900
2022-10-07T05:30:45.603Z,984
2022-10-07T05:31:51.899Z,1043
2022-10-07T05:32:58.308Z,1124
2022-10-07T05:34:04.737Z,1197
2022-10-07T05:35:11.142Z,1295
2022-10-07T05:36:17.515Z,1389
2022-10-07T05:37:23.923Z,1500
2022-10-07T05:38:30.283Z,1622
2022-10-07T05:39:36.734Z,1735
2022-10-07T05:40:43.074Z,1825
2022-10-07T05:41:49.471Z,1894
2022-10-07T05:42:55.900Z,2040
2022-10-07T05:44:02.248Z,2163
2022-10-07T05:45:08.639Z,2306
2022-10-07T05:46:15.029Z,2456
2022-10-07T05:47:21.545Z,2618
2022-10-07T05:48:28.048Z,2744
2022-10-07T05:49:34.561Z,2834
2022-10-07T05:50:41.059Z,2985
2022-10-07T05:51:47.577Z,3282
2022-10-07T05:52:54.091Z,2838
2022-10-07T05:54:00.593Z,2985
2022-10-07T05:55:07.103Z,3946
2022-10-07T05:56:13.617Z,4625
2022-10-07T05:57:20.131Z,4053
2022-10-07T05:58:26.630Z,4257
2022-10-07T05:59:33.152Z,3011
2022-10-07T06:00:39.658Z,2562
2022-10-07T06:03:15.274Z,4325
2022-10-07T06:04:22.021Z,6033
2022-10-07T06:05:28.800Z,31660
2022-10-07T06:06:34.376Z,11744
2022-10-07T06:07:40.677Z,4607
2022-10-07T06:08:46.975Z,6864
2022-10-07T06:09:53.259Z,8482
2022-10-07T06:10:59.549Z,17167
2022-10-07T06:12:05.849Z,11050
2022-10-07T06:13:12.123Z,12370
2022-10-07T06:14:18.392Z,19565
2022-10-07T06:15:24.668Z,31249
2022-10-07T06:16:30.962Z,29487
2022-10-07T06:17:37.198Z,26305
2022-10-07T06:18:43.440Z,28692
2022-10-07T06:19:49.783Z,28980
2022-10-07T06:20:55.941Z,29225
2022-10-07T06:22:02.188Z,30252
2022-10-07T06:23:08.429Z,28381
2022-10-07T06:24:14.657Z,30240
2022-10-07T06:25:20.860Z,29247
2022-10-07T06:26:27.069Z,28036
2022-10-07T06:27:33.271Z,24276
2022-10-07T06:28:39.486Z,26972
2022-10-07T06:29:44.695Z,34153
2022-10-07T06:30:49.888Z,20189
2022-10-07T06:31:56.102Z,19914
2022-10-07T06:33:02.242Z,27483
2022-10-07T06:34:08.426Z,24912
2022-10-07T06:35:14.592Z,24309
2022-10-07T06:36:20.764Z,23008
2022-10-07T06:37:26.904Z,26367
2022-10-07T06:38:33.054Z,20077
2022-10-07T06:39:39.199Z,32957
2022-10-07T06:40:45.346Z,22613
2022-10-07T06:41:51.481Z,21004
2022-10-07T06:42:57.625Z,20042
2022-10-07T06:44:03.750Z,20955
2022-10-07T06:45:09.859Z,23324
2022-10-07T06:46:15.994Z,24164
2022-10-07T06:47:22.124Z,24654
2022-10-07T06:48:28.226Z,25521
2022-10-07T06:49:34.346Z,32835
2022-10-07T06:50:40.441Z,17807
2022-10-07T06:51:46.601Z,16410
2022-10-07T06:52:52.644Z,28962
2022-10-07T06:53:58.763Z,16521
2022-10-07T06:55:04.831Z,16770
2022-10-07T06:56:10.920Z,18108
2022-10-07T06:57:17.002Z,18278
2022-10-07T06:58:23.072Z,27150
2022-10-07T06:59:29.160Z,18461
2022-10-07T07:00:35.231Z,20842
2022-10-07T07:01:41.296Z,32975
2022-10-07T07:02:47.355Z,29969
2022-10-07T07:03:53.412Z,28305
2022-10-07T07:04:59.477Z,30928
2022-10-07T07:06:05.527Z,26117
2022-10-07T07:07:11.587Z,21762
2022-10-07T07:08:17.626Z,18811
2022-10-07T07:09:23.703Z,18392
2022-10-07T07:10:29.727Z,23113
2022-10-07T07:11:35.863Z,25645
2022-10-07T07:12:42.165Z,22561
2022-10-07T07:13:48.093Z,21751
2022-10-07T07:14:54.220Z,19266
2022-10-07T07:16:00.332Z,24963
2022-10-07T07:17:06.431Z,19479
2022-10-07T07:18:12.553Z,22647
2022-10-07T07:19:18.691Z,27980
2022-10-07T07:20:24.779Z,29245
2022-10-07T07:21:30.873Z,21481
2022-10-07T07:22:37.003Z,18618
2022-10-07T07:23:43.095Z,27441
2022-10-07T07:24:49.202Z,19183
2022-10-07T07:25:55.444Z,19434
2022-10-07T07:27:00.661Z,22757
2022-10-07T07:28:06.670Z,21831
2022-10-07T07:29:12.709Z,24761
2022-10-07T07:30:18.713Z,19414
2022-10-07T07:31:24.760Z,25692
2022-10-07T07:32:30.785Z,26855
2022-10-07T07:33:36.814Z,25456
2022-10-07T07:34:42.847Z,18547
2022-10-07T07:35:48.866Z,22248
2022-10-07T07:36:54.903Z,18719
2022-10-07T07:38:00.926Z,18871
2022-10-07T07:39:06.957Z,25806
2022-10-07T07:40:12.972Z,22913
2022-10-07T07:41:19.008Z,18951
2022-10-07T07:42:25.084Z,18169
2022-10-07T07:43:31.117Z,19972
2022-10-07T07:44:37.069Z,19852
2022-10-07T07:45:43.105Z,23882
2022-10-07T07:46:49.115Z,22112
2022-10-07T07:47:55.132Z,19491
2022-10-07T07:49:01.161Z,19085
2022-10-07T07:50:07.172Z,18026
2022-10-07T07:51:13.178Z,21011
2022-10-07T07:52:19.248Z,18861
2022-10-07T07:53:25.199Z,21559
2022-10-07T07:54:31.282Z,23759
2022-10-07T07:55:37.372Z,18823
2022-10-07T07:56:43.487Z,20374
2022-10-07T07:57:49.524Z,19334
2022-10-07T07:58:55.599Z,18137
2022-10-07T08:00:01.734Z,25352
2022-10-07T08:01:07.752Z,20837
2022-10-07T08:02:13.835Z,18353
2022-10-07T08:03:19.905Z,29593
2022-10-07T08:04:25.972Z,19008
2022-10-07T08:05:32.030Z,19519
2022-10-07T08:06:38.101Z,21252
2022-10-07T08:07:44.310Z,18911
2022-10-07T08:08:50.379Z,31765
2022-10-07T08:09:56.560Z,19321
2022-10-07T08:11:02.766Z,18957
2022-10-07T08:12:08.963Z,20300
2022-10-07T08:13:15.167Z,19265
2022-10-07T08:14:21.368Z,19118
2022-10-07T08:15:27.570Z,18016
2022-10-07T08:16:33.774Z,32992
2022-10-07T08:17:40.228Z,28115
2022-10-07T08:18:46.168Z,19905
2022-10-07T08:19:52.351Z,19502
2022-10-07T08:20:58.548Z,32690
2022-10-07T08:22:04.747Z,17169
2022-10-07T08:23:11.183Z,19216
2022-10-07T08:24:16.503Z,19654
2022-10-07T08:25:22.498Z,29155
2022-10-07T08:26:28.490Z,19828
2022-10-07T08:27:34.521Z,19322
2022-10-07T08:28:40.481Z,18971
2022-10-07T08:29:46.460Z,31660
2022-10-07T08:30:52.458Z,22961
2022-10-07T08:31:58.490Z,17793
2022-10-07T08:33:04.434Z,19316
2022-10-07T08:34:10.432Z,25834
2022-10-07T08:35:16.452Z,25030
2022-10-07T08:36:22.395Z,31325
2022-10-07T08:37:28.383Z,30203
2022-10-07T08:38:34.375Z,19441
2022-10-07T08:39:40.404Z,19744
2022-10-07T08:40:46.334Z,19627
2022-10-07T08:41:52.314Z,19397
2022-10-07T08:42:58.298Z,25627
2022-10-07T08:44:04.283Z,17817
2022-10-07T08:45:10.266Z,17384
2022-10-07T08:46:16.250Z,29075
2022-10-07T08:47:22.253Z,24690
2022-10-07T08:48:28.216Z,19994
2022-10-07T08:49:34.207Z,18788
2022-10-07T08:50:40.194Z,18525
2022-10-07T08:51:46.265Z,26628
2022-10-07T08:52:52.363Z,24873
2022-10-07T08:53:58.399Z,21110
2022-10-07T08:55:04.485Z,18576
2022-10-07T08:56:10.634Z,19185
2022-10-07T08:57:16.611Z,20670
2022-10-07T08:58:22.694Z,26277
2022-10-07T08:59:28.766Z,25706
2022-10-07T09:00:34.840Z,22117
2022-10-07T09:01:40.928Z,17826
2022-10-07T09:02:47.003Z,19885
2022-10-07T09:03:53.079Z,28223
2022-10-07T09:04:59.146Z,18037
2022-10-07T09:06:05.366Z,34078
2022-10-07T09:07:11.598Z,17309
2022-10-07T09:08:17.799Z,6104
2022-10-07T09:09:24.079Z,51421
2022-10-07T09:10:30.229Z,24688
2022-10-07T09:11:36.439Z,17052
2022-10-07T09:12:42.662Z,14508
2022-10-07T09:13:48.896Z,13851
2022-10-07T09:14:55.099Z,13558
2022-10-07T09:16:01.306Z,13349
2022-10-07T09:17:07.529Z,13913
2022-10-07T09:18:13.753Z,12820
2022-10-07T09:19:19.959Z,20209
2022-10-07T09:21:54.911Z,18806
2022-10-07T09:23:00.274Z,12161
2022-10-07T09:24:06.287Z,11320
2022-10-07T09:25:12.330Z,11168
2022-10-07T09:26:18.382Z,11000
2022-10-07T09:27:24.415Z,10853
2022-10-07T09:28:30.482Z,10739
2022-10-07T09:29:36.495Z,10589
2022-10-07T09:30:42.558Z,10502
2022-10-07T09:31:48.598Z,10361
2022-10-07T09:32:54.672Z,10280
2022-10-07T09:34:00.735Z,10195
2022-10-07T09:35:06.773Z,10157
2022-10-07T09:36:12.816Z,10079
2022-10-07T09:37:18.872Z,10015
2022-10-07T09:38:24.936Z,9872
2022-10-07T09:39:30.998Z,9833
2022-10-07T09:40:37.075Z,9724
2022-10-07T09:41:43.145Z,9668
2022-10-07T09:42:49.203Z,9547
2022-10-07T09:43:55.281Z,9547
2022-10-07T09:45:01.355Z,9395
2022-10-07T09:46:07.425Z,9448
2022-10-07T09:47:13.505Z,9328
2022-10-07T09:48:19.579Z,9243
2022-10-07T09:49:25.677Z,9197
2022-10-07T09:50:31.817Z,9149
2022-10-07T09:51:37.974Z,9065
2022-10-07T09:52:44.151Z,9042
2022-10-07T09:53:50.309Z,8999
2022-10-07T09:54:56.507Z,8942
2022-10-07T09:56:02.649Z,8874
2022-10-07T09:57:07.827Z,8914
2022-10-07T09:58:13.918Z,8697
2022-10-07T09:59:19.996Z,8703
2022-10-07T10:00:26.098Z,8674
2022-10-07T10:01:32.199Z,8722
2022-10-07T10:02:38.279Z,8683
2022-10-07T10:03:44.378Z,8680
2022-10-07T10:04:50.468Z,8659
2022-10-07T10:05:56.563Z,8638
2022-10-07T10:07:02.659Z,8603
2022-10-07T10:08:08.760Z,8698
2022-10-07T10:09:14.848Z,8689
2022-10-07T10:10:21.192Z,8660
2022-10-07T10:11:27.030Z,8630
2022-10-07T10:12:33.121Z,8580
2022-10-07T10:13:39.214Z,8511
2022-10-07T10:14:45.312Z,8541
2022-10-07T10:15:51.416Z,8463
2022-10-07T10:16:57.489Z,8430
2022-10-07T10:18:03.589Z,8504
2022-10-07T10:19:09.669Z,8391
2022-10-07T10:20:15.750Z,8369
2022-10-07T10:21:21.847Z,8427
2022-10-07T10:22:27.949Z,8433
2022-10-07T10:23:34.280Z,8364
2022-10-07T10:24:40.186Z,8270
2022-10-07T10:25:46.356Z,8334
2022-10-07T10:26:52.550Z,8314
2022-10-07T10:27:58.709Z,8338
2022-10-07T10:29:04.886Z,8274
2022-10-07T10:30:11.058Z,8185
2022-10-07T10:31:17.217Z,8305
2022-10-07T10:32:23.429Z,8329
2022-10-07T10:33:29.582Z,8112
2022-10-07T10:34:35.709Z,8138
2022-10-07T10:35:41.893Z,8214
2022-10-07T10:36:48.041Z,8229
2022-10-07T10:37:54.225Z,8101
2022-10-07T10:39:00.608Z,8204
2022-10-07T10:40:05.751Z,8212
2022-10-07T10:41:11.853Z,8159
2022-10-07T10:42:17.987Z,8186
2022-10-07T10:43:24.013Z,8145
2022-10-07T10:44:30.165Z,8128
2022-10-07T10:45:36.336Z,8091
2022-10-07T10:46:42.391Z,8160
2022-10-07T10:47:48.381Z,8057
2022-10-07T10:48:54.469Z,8001
2022-10-07T10:50:00.603Z,8050
2022-10-07T10:51:06.682Z,8105
2022-10-07T10:52:12.757Z,7958
2022-10-07T10:53:18.832Z,7978
2022-10-07T10:54:24.921Z,7962
2022-10-07T10:55:31.014Z,7890
2022-10-07T10:56:37.095Z,7991
2022-10-07T10:57:43.180Z,7964
2022-10-07T10:58:49.263Z,7951
2022-10-07T10:59:55.359Z,7898
2022-10-07T11:01:01.443Z,7950
2022-10-07T11:02:07.529Z,7950
2022-10-07T11:03:13.619Z,7911
2022-10-07T11:04:19.701Z,7898
2022-10-07T11:05:25.792Z,7879
2022-10-07T11:06:31.866Z,7854
2022-10-07T11:07:38.024Z,7833
2022-10-07T11:08:44.195Z,7891
2022-10-07T11:09:50.358Z,7817
2022-10-07T11:10:56.520Z,7811
2022-10-07T11:12:02.682Z,7800
2022-10-07T11:13:08.845Z,7907
2022-10-07T11:14:15.009Z,7731
2022-10-07T11:15:21.195Z,7732
2022-10-07T11:16:27.335Z,7802
2022-10-07T11:17:33.501Z,7738
2022-10-07T11:18:39.655Z,7648
2022-10-07T11:19:45.819Z,7618
2022-10-07T11:20:52.028Z,7658
2022-10-07T11:21:58.301Z,7787
2022-10-07T11:23:03.580Z,7703
2022-10-07T11:24:09.578Z,7577
2022-10-07T11:25:15.655Z,7564
2022-10-07T11:26:21.736Z,7782
2022-10-07T11:27:27.817Z,7415
2022-10-07T11:28:33.902Z,7550
2022-10-07T11:29:39.971Z,7702
2022-10-07T11:30:46.048Z,7614
2022-10-07T11:31:52.140Z,7507
2022-10-07T11:32:58.214Z,7517
2022-10-07T11:34:04.287Z,7588
2022-10-07T11:35:10.374Z,7507
2022-10-07T11:36:16.446Z,7539
2022-10-07T11:37:22.511Z,7535
2022-10-07T11:38:28.852Z,7497
2022-10-07T11:39:34.684Z,7571
2022-10-07T11:40:40.760Z,7477
2022-10-07T11:41:46.838Z,7464
2022-10-07T11:42:52.944Z,7525
2022-10-07T11:43:59.001Z,7470
2022-10-07T11:45:05.085Z,7458
2022-10-07T11:46:11.158Z,7477
2022-10-07T11:47:17.231Z,7417
2022-10-07T11:48:23.297Z,7389
2022-10-07T11:49:29.385Z,7397
2022-10-07T11:50:35.541Z,7312
2022-10-07T11:51:41.689Z,7378
2022-10-07T11:52:47.845Z,7401
2022-10-07T11:53:54.000Z,7393
2022-10-07T11:55:00.158Z,7406
2022-10-07T11:56:06.313Z,7295
2022-10-07T11:57:12.458Z,7284
2022-10-07T11:58:18.617Z,7261
2022-10-07T11:59:24.772Z,7332
2022-10-07T12:00:30.919Z,7308
2022-10-07T12:01:37.068Z,7253
2022-10-07T12:02:43.225Z,7280
2022-10-07T12:03:49.371Z,7262
2022-10-07T12:04:55.652Z,7231
2022-10-07T12:06:00.889Z,7216
2022-10-07T12:07:06.952Z,7294
2022-10-07T12:08:13.012Z,7287
2022-10-07T12:09:19.092Z,7229
2022-10-07T12:10:25.159Z,7225
2022-10-07T12:11:31.226Z,7208
2022-10-07T12:12:37.346Z,7244
2022-10-07T12:13:43.370Z,7245
2022-10-07T12:14:49.724Z,7184
2022-10-07T12:15:55.511Z,7245
2022-10-07T12:17:01.579Z,7206
2022-10-07T12:18:07.695Z,7191
2022-10-07T12:19:13.722Z,7150
2022-10-07T12:20:19.783Z,7201
2022-10-07T12:21:25.856Z,7200
2022-10-07T12:22:31.929Z,7146
2022-10-07T12:23:37.996Z,7211
2022-10-07T12:24:44.064Z,7171
2022-10-07T12:25:50.133Z,7137
2022-10-07T12:26:56.230Z,7106
2022-10-07T12:28:02.272Z,7110
2022-10-07T12:29:08.338Z,7129
2022-10-07T12:30:14.403Z,7129
2022-10-07T12:31:20.469Z,7226
2022-10-07T12:32:26.542Z,7083
2022-10-07T12:33:32.706Z,7020
2022-10-07T12:34:38.838Z,7001
2022-10-07T12:35:44.985Z,7010
2022-10-07T12:36:51.157Z,7022
2022-10-07T12:37:57.273Z,6998
2022-10-07T12:39:03.415Z,7024
2022-10-07T12:40:09.559Z,6917
2022-10-07T12:41:15.694Z,6963
2022-10-07T12:42:21.835Z,6987
2022-10-07T12:43:27.971Z,6957
2022-10-07T12:44:34.119Z,6983
2022-10-07T12:45:40.258Z,6960
2022-10-07T12:46:46.479Z,6960
2022-10-07T12:47:52.670Z,6931
2022-10-07T12:48:57.891Z,6886
2022-10-07T12:50:03.950Z,6900
2022-10-07T12:51:10.016Z,6945
2022-10-07T12:52:16.095Z,6885
2022-10-07T12:53:22.153Z,6856
2022-10-07T12:54:28.278Z,6861
2022-10-07T12:55:34.398Z,6842
2022-10-07T12:56:40.365Z,6865
2022-10-07T12:57:46.424Z,6882
2022-10-07T12:58:52.481Z,6876
2022-10-07T12:59:58.551Z,6972
2022-10-07T13:01:04.621Z,6897
2022-10-07T13:02:10.714Z,6980
2022-10-07T13:03:16.759Z,6727
2022-10-07T13:04:22.823Z,6834
2022-10-07T13:05:28.896Z,6877
2022-10-07T13:06:34.964Z,6885
2022-10-07T13:07:41.032Z,6882
2022-10-07T13:08:47.098Z,6843
2022-10-07T13:09:53.154Z,6840
2022-10-07T13:10:59.227Z,6849
2022-10-07T13:12:05.291Z,6872
2022-10-07T13:13:11.377Z,6876
2022-10-07T13:14:17.425Z,6847
2022-10-07T13:15:23.494Z,6840
2022-10-07T13:16:29.648Z,6840
2022-10-07T13:17:35.794Z,6806
2022-10-07T13:18:41.946Z,6777
2022-10-07T13:19:48.081Z,6831
2022-10-07T13:20:54.219Z,6801
2022-10-07T13:22:00.383Z,6801
2022-10-07T13:23:06.513Z,6773
2022-10-07T13:24:12.659Z,6756
2022-10-07T13:25:18.802Z,6769
2022-10-07T13:26:24.953Z,6754
2022-10-07T13:27:31.098Z,6816
2022-10-07T13:28:37.235Z,6786
2022-10-07T13:29:43.377Z,6700
2022-10-07T13:30:49.646Z,6623
2022-10-07T13:31:54.869Z,6526
2022-10-07T13:33:00.927Z,6453
2022-10-07T13:34:06.999Z,6486
2022-10-07T13:35:13.076Z,6460
2022-10-07T13:36:19.143Z,6452
2022-10-07T13:37:25.213Z,6468
2022-10-07T13:38:31.282Z,6380
2022-10-07T13:39:37.362Z,6377
2022-10-07T13:40:43.438Z,6341
2022-10-07T13:41:49.519Z,6302
2022-10-07T13:42:55.611Z,6269
2022-10-07T13:44:01.686Z,6244
2022-10-07T13:45:07.751Z,6272
2022-10-07T13:46:13.834Z,6236
2022-10-07T13:47:19.920Z,6279
2022-10-07T13:48:26.018Z,6280
2022-10-07T13:49:32.091Z,6237
2022-10-07T13:50:38.171Z,6228
2022-10-07T13:51:44.264Z,6234
2022-10-07T13:52:50.353Z,6269
2022-10-07T13:53:56.491Z,6211
2022-10-07T13:55:02.536Z,6192
2022-10-07T13:56:08.628Z,6171
2022-10-07T13:57:14.727Z,6186
2022-10-07T13:58:20.815Z,6172
2022-10-07T13:59:26.983Z,6151
2022-10-07T14:00:33.152Z,6160
2022-10-07T14:01:39.326Z,6168
2022-10-07T14:02:45.558Z,6146
2022-10-07T14:03:51.670Z,6158
2022-10-07T14:04:57.833Z,6152
2022-10-07T14:06:04.009Z,6133
2022-10-07T14:07:10.181Z,6101
2022-10-07T14:08:16.373Z,6084
2022-10-07T14:09:22.518Z,6068
2022-10-07T14:10:28.699Z,6045
2022-10-07T14:11:34.869Z,6055
2022-10-07T14:12:40.054Z,6029
2022-10-07T14:13:46.151Z,6026
2022-10-07T14:14:52.257Z,6023
2022-10-07T14:15:58.344Z,6028
2022-10-07T14:17:04.437Z,6029
2022-10-07T14:18:10.556Z,6026
2022-10-07T14:19:16.657Z,5976
2022-10-07T14:20:22.747Z,5995
2022-10-07T14:21:28.856Z,5991
2022-10-07T14:22:35.017Z,5963
2022-10-07T14:23:41.043Z,5973
2022-10-07T14:24:47.148Z,5968
2022-10-07T14:25:53.266Z,5935
2022-10-07T14:26:59.377Z,5909
2022-10-07T14:28:05.453Z,5883
2022-10-07T14:29:11.572Z,5838
2022-10-07T14:30:17.666Z,5818
2022-10-07T14:31:23.770Z,5774
2022-10-07T14:32:29.881Z,5750
2022-10-07T14:33:36.038Z,5774
2022-10-07T14:34:42.105Z,5733
2022-10-07T14:35:48.220Z,5690
2022-10-07T14:36:54.333Z,5667
2022-10-07T14:38:00.437Z,5674
2022-10-07T14:39:06.547Z,5685
2022-10-07T14:40:12.735Z,5569
2022-10-07T14:41:17.922Z,5626
2022-10-07T14:42:24.094Z,5554
2022-10-07T14:43:30.153Z,5554
2022-10-07T14:44:36.278Z,5564
2022-10-07T14:45:42.369Z,5716
2022-10-07T14:46:48.489Z,5326
2022-10-07T14:47:54.616Z,5394
2022-10-07T14:49:00.746Z,5479
2022-10-07T14:50:06.836Z,5444
2022-10-07T14:51:12.939Z,5557
2022-10-07T14:52:19.056Z,5309
2022-10-07T14:53:25.166Z,5448
2022-10-07T14:54:31.277Z,5338
2022-10-07T14:55:37.394Z,5364
2022-10-07T14:56:43.516Z,5361
2022-10-07T14:57:49.621Z,5634
2022-10-07T14:58:55.798Z,5134
2022-10-07T15:00:01.840Z,5355
2022-10-07T15:01:07.962Z,5455
2022-10-07T15:02:14.067Z,5320
2022-10-07T15:03:20.187Z,5177
2022-10-07T15:04:26.288Z,5277
2022-10-07T15:05:32.412Z,5263
2022-10-07T15:06:38.511Z,5221
2022-10-07T15:07:44.620Z,5143
2022-10-07T15:08:50.806Z,5083
2022-10-07T15:09:56.087Z,5100